Time;durP1;ratioP1;P1;durP2;ratioP2;P2;SDS_P1;SDS_P2;PMS_P1;PMS_P2;Temp;Humidity;BMP_temperature;BMP_pressure;BME280_temperature;BME280_humidity;BME280_pressure;Samples;Min_cycle;Max_cycle;Signal;HPM_P1;HPM_P2
2022/05/24 00:00:29;;;;;;;25.35;22.73;;;;;;;13.05;100.00;99959.28;1043946;28;20311;-80
2022/05/24 00:01:01;;;;;;;26.40;23.70;;;;;;;13.11;100.00;99950.22;1038738;28;20302;-80
2022/05/24 00:01:32;;;;;;;27.65;24.67;;;;;;;13.26;100.00;99950.41;1036441;28;20300;-80
2022/05/24 00:02:04;;;;;;;26.38;23.88;;;;;;;13.23;100.00;99953.59;1039598;28;20303;-80
2022/05/24 00:02:36;;;;;;;28.90;25.42;;;;;;;13.12;100.00;99954.50;1040637;28;20300;-80
2022/05/24 00:03:08;;;;;;;26.70;23.98;;;;;;;13.18;100.00;99953.53;1040910;28;20292;-80
2022/05/24 00:03:40;;;;;;;26.42;23.92;;;;;;;13.17;100.00;99956.44;1031318;28;20320;-80
2022/05/24 00:04:12;;;;;;;25.98;23.27;;;;;;;13.19;100.00;99955.16;1034522;28;20302;-80
2022/05/24 00:04:44;;;;;;;27.85;25.02;;;;;;;13.24;100.00;99949.03;1031876;28;20668;-80
2022/05/24 00:05:16;;;;;;;26.80;24.20;;;;;;;13.40;100.00;99956.09;1035545;28;20300;-80
2022/05/24 00:05:48;;;;;;;27.05;24.17;;;;;;;13.42;100.00;99948.66;1039182;28;20289;-80
2022/05/24 00:06:20;;;;;;;27.00;24.30;;;;;;;13.34;100.00;99956.31;1033751;28;20629;-80
2022/05/24 00:06:52;;;;;;;28.52;25.33;;;;;;;13.17;100.00;99951.94;1040243;28;20437;-80
2022/05/24 00:07:24;;;;;;;26.23;23.65;;;;;;;13.19;100.00;99955.16;1041113;28;20316;-80
2022/05/24 00:07:55;;;;;;;26.05;23.67;;;;;;;13.16;100.00;99950.28;1032419;28;20370;-80
2022/05/24 00:08:29;;;;;;;28.95;24.33;;;;;;;13.11;100.00;99955.56;1036522;28;20296;-80
2022/05/24 00:09:01;;;;;;;26.48;23.95;;;;;;;13.09;100.00;99951.53;1039878;28;20315;-80
2022/05/24 00:09:36;;;;;;;26.77;23.52;;;;;;;13.25;100.00;99951.47;1040944;28;20800;-80
2022/05/24 00:10:11;;;;;;;26.08;23.45;;;;;;;13.18;100.00;99948.19;1042059;28;20307;-80
2022/05/24 00:10:43;;;;;;;26.40;23.60;;;;;;;13.23;100.00;99947.44;1033342;28;20296;-80
2022/05/24 00:11:14;;;;;;;25.45;22.77;;;;;;;13.39;100.00;99953.69;1034444;28;20312;-80
2022/05/24 00:11:46;;;;;;;27.27;24.13;;;;;;;13.48;100.00;99949.50;1036860;28;20292;-80
2022/05/24 00:12:18;;;;;;;28.17;25.23;;;;;;;13.43;100.00;99954.81;1036237;28;20300;-80
2022/05/24 00:12:49;;;;;;;27.42;24.52;;;;;;;13.47;100.00;99945.22;1040254;28;20640;-80
2022/05/24 00:13:21;;;;;;;27.58;24.95;;;;;;;13.39;100.00;99945.66;1044086;28;20680;-80
2022/05/24 00:13:53;;;;;;;26.63;23.95;;;;;;;13.45;100.00;99942.78;1040662;28;20300;-80
2022/05/24 00:15:20;;;;;;;26.45;23.65;;;;;;;13.34;100.00;99945.63;1044532;28;20307;-80
2022/05/24 00:15:52;;;;;;;26.55;22.20;;;;;;;13.37;100.00;99956.63;1043681;28;20373;-80
2022/05/24 00:16:24;;;;;;;24.83;22.35;;;;;;;13.24;100.00;99947.19;1044049;28;20299;-80
2022/05/24 00:16:56;;;;;;;24.80;21.48;;;;;;;13.41;100.00;99947.00;1039769;28;20306;-80
2022/05/24 00:17:28;;;;;;;26.60;23.88;;;;;;;13.38;100.00;99952.06;1036378;28;20379;-80
2022/05/24 00:18:07;;;;;;;25.27;22.55;;;;;;;13.43;100.00;99946.78;1037116;28;20363;-80
2022/05/24 00:18:39;;;;;;;26.40;22.17;;;;;;;13.38;100.00;99946.72;1035940;28;20304;-80
2022/05/24 00:19:11;;;;;;;26.13;23.42;;;;;;;13.33;100.00;99950.16;1036269;28;20335;-80
2022/05/24 00:19:43;;;;;;;34.55;23.35;;;;;;;13.41;100.00;99948.88;1033344;28;20300;-80
2022/05/24 00:20:15;;;;;;;22.70;20.45;;;;;;;13.39;100.00;99946.47;1034837;28;20351;-80
2022/05/24 00:20:55;;;;;;;25.95;22.42;;;;;;;13.29;100.00;99949.88;1044006;28;20045;-80
2022/05/24 00:21:26;;;;;;;25.92;23.25;;;;;;;13.36;100.00;99943.50;1044423;28;20310;-80
2022/05/24 00:21:58;;;;;;;25.23;22.58;;;;;;;13.41;100.00;99940.84;1047872;28;20307;-80
2022/05/24 00:22:30;;;;;;;25.08;22.50;;;;;;;13.44;100.00;99940.38;1043873;28;20763;-81
2022/05/24 00:23:04;;;;;;;24.60;21.15;;;;;;;13.54;100.00;99948.47;1038531;28;20304;-81
2022/05/24 00:23:36;;;;;;;27.45;21.60;;;;;;;13.49;100.00;99943.88;1028044;28;20855;-81
2022/05/24 00:24:07;;;;;;;24.42;21.60;;;;;;;13.45;100.00;99945.47;1027845;28;20043;-81
2022/05/24 00:24:39;;;;;;;25.13;22.73;;;;;;;13.46;100.00;99948.94;1032682;28;20146;-81
2022/05/24 00:25:10;;;;;;;25.77;23.35;;;;;;;13.41;100.00;99948.88;1036613;28;20315;-81
2022/05/24 00:25:45;;;;;;;28.00;22.52;;;;;;;13.41;100.00;99947.00;1040534;28;20852;-81
2022/05/24 00:26:21;;;;;;;24.27;21.75;;;;;;;13.46;100.00;99948.94;1039806;28;20324;-81
2022/05/24 00:26:53;;;;;;;23.83;21.33;;;;;;;13.20;100.00;99945.28;1039960;28;20638;-81
2022/05/24 00:27:25;;;;;;;24.17;21.20;;;;;;;13.29;100.00;99949.88;1039070;28;20296;-81
2022/05/24 00:27:56;;;;;;;21.90;19.80;;;;;;;13.40;100.00;99949.94;1042312;28;20382;-81
2022/05/24 00:28:30;;;;;;;24.77;22.27;;;;;;;13.37;100.00;99947.78;1036192;28;20296;-81
2022/05/24 00:29:01;;;;;;;22.73;20.42;;;;;;;13.37;100.00;99950.47;1035354;28;20758;-81
2022/05/24 00:29:34;;;;;;;25.83;21.40;;;;;;;13.33;100.00;99950.16;1036533;28;20305;-81
2022/05/24 00:30:07;;;;;;;23.60;21.23;;;;;;;13.34;100.00;99950.97;1041778;28;20659;-81
2022/05/24 00:30:39;;;;;;;24.85;22.42;;;;;;;13.36;100.00;99946.97;1048751;28;20716;-81
2022/05/24 00:31:10;;;;;;;23.63;21.42;;;;;;;13.30;100.00;99951.50;1048013;28;20681;-81
2022/05/24 00:31:42;;;;;;;25.65;22.35;;;;;;;13.41;100.00;99949.69;1048263;28;20381;-81
2022/05/24 00:32:14;;;;;;;29.58;23.05;;;;;;;13.34;100.00;99953.66;1044174;28;20298;-81
2022/05/24 00:32:46;;;;;;;25.17;22.67;;;;;;;13.26;100.00;99953.06;1039229;28;20793;-81
2022/05/24 00:33:20;;;;;;;25.20;22.70;;;;;;;13.36;100.00;99955.00;1042336;28;20363;-81
2022/05/24 00:33:52;;;;;;;25.85;23.02;;;;;;;13.40;100.00;99955.28;1039830;28;20307;-80
2022/05/24 00:34:26;;;;;;;24.73;22.30;;;;;;;13.45;100.00;99953.50;1036835;28;20297;-80
2022/05/24 00:34:57;;;;;;;26.33;22.58;;;;;;;13.45;100.00;99952.69;1036633;28;20897;-81
2022/05/24 00:35:29;;;;;;;24.85;22.35;;;;;;;13.52;100.00;99947.91;1036907;28;20803;-81
2022/05/24 00:36:01;;;;;;;27.05;24.35;;;;;;;13.44;100.00;99948.41;1031716;28;20301;-81
2022/05/24 00:36:32;;;;;;;25.77;23.20;;;;;;;13.41;100.00;99951.56;1033318;28;20042;-80
2022/05/24 00:37:04;;;;;;;29.10;23.45;;;;;;;13.40;100.00;99955.28;1032455;28;20320;-81
2022/05/24 00:37:38;;;;;;;26.10;23.02;;;;;;;13.40;100.00;99952.63;1032593;28;20305;-80
2022/05/24 00:38:11;;;;;;;24.75;22.33;;;;;;;13.41;100.00;99952.38;1038180;28;20346;-81
2022/05/24 00:38:43;;;;;;;26.65;23.98;;;;;;;13.41;100.00;99946.22;1037694;28;20053;-81
2022/05/24 00:39:14;;;;;;;28.48;23.77;;;;;;;13.28;100.00;99953.63;1034104;28;20312;-81
2022/05/24 00:39:47;;;;;;;26.83;23.48;;;;;;;13.42;100.00;99948.66;1040501;28;20312;-81
2022/05/24 00:40:27;;;;;;;27.00;24.30;;;;;;;13.42;100.00;99947.81;1041312;28;20355;-80
2022/05/24 00:41:03;;;;;;;29.13;21.88;;;;;;;13.47;100.00;99946.00;1046137;28;20295;-79
2022/05/24 00:41:38;;;;;;;26.70;23.92;;;;;;;13.44;100.00;99940.38;1040807;28;20368;-80
2022/05/24 00:42:17;;;;;;;25.85;23.10;;;;;;;13.54;100.00;99938.56;1035026;28;20304;-80
2022/05/24 00:42:51;;;;;;;26.60;22.92;;;;;;;13.49;100.00;99932.38;1038859;28;20677;-80
2022/05/24 00:43:33;;;;;;;27.30;23.75;;;;;;;13.44;100.00;99935.03;1033872;28;20305;-80
2022/05/24 00:44:05;;;;;;;25.83;23.20;;;;;;;13.47;100.00;99923.81;1029198;28;20409;-80
2022/05/24 00:44:40;;;;;;;28.38;24.52;;;;;;;13.49;100.00;99921.69;1032860;28;20344;-80
2022/05/24 00:45:34;;;;;;;25.88;23.25;;;;;;;13.41;100.00;99927.47;1041939;28;20316;-80
2022/05/24 00:46:13;;;;;;;25.77;23.10;;;;;;;13.50;100.00;99936.66;1040876;28;20300;-80
2022/05/24 00:46:58;;;;;;;24.17;21.55;;;;;;;13.41;100.00;99932.84;1040202;28;20357;-80
2022/05/24 00:47:34;;;;;;;25.95;23.55;;;;;;;13.43;100.00;99938.75;1040196;28;20327;-80
2022/05/24 00:48:08;;;;;;;27.38;23.58;;;;;;;13.47;100.00;99939.84;1042490;28;20298;-80
2022/05/24 00:48:50;;;;;;;32.05;24.80;;;;;;;13.45;100.00;99937.44;1035807;28;20636;-79
2022/05/24 00:49:28;;;;;;;26.88;24.05;;;;;;;13.52;100.00;99942.56;1038578;28;20292;-79
2022/05/24 00:50:25;;;;;;;27.75;24.75;;;;;;;13.40;100.00;99939.25;1034812;28;20418;-79
2022/05/24 00:50:57;;;;;;;27.27;24.17;;;;;;;13.39;100.00;99938.44;1035369;28;20340;-79
2022/05/24 00:51:33;;;;;;;27.40;24.45;;;;;;;13.42;100.00;99934.44;1035935;28;20315;-80
2022/05/24 00:52:14;;;;;;;27.27;24.45;;;;;;;13.42;100.00;99934.44;1037552;28;20308;-80
2022/05/24 00:52:56;;;;;;;33.97;24.85;;;;;;;13.40;100.00;99939.25;1032944;28;20379;-80
2022/05/24 00:53:37;;;;;;;27.17;23.42;;;;;;;13.48;100.00;99936.13;1035758;28;20304;-79
2022/05/24 00:54:09;;;;;;;30.02;24.70;;;;;;;13.41;100.00;99935.50;1033588;28;20305;-80
2022/05/24 00:54:42;;;;;;;27.63;24.60;;;;;;;13.28;100.00;99932.22;1037979;28;20092;-80
2022/05/24 00:55:16;;;;;;;26.45;23.77;;;;;;;13.38;100.00;99938.69;1033461;28;20313;-80
2022/05/24 00:55:53;;;;;;;27.40;24.80;;;;;;;13.40;100.00;99931.22;1037379;28;20293;-79
2022/05/24 00:56:35;;;;;;;26.05;23.40;;;;;;;13.41;100.00;99930.97;1041695;28;20292;-80
2022/05/24 00:57:11;;;;;;;26.27;23.45;;;;;;;13.45;100.00;99937.44;1039323;28;20419;-79
2022/05/24 00:57:59;;;;;;;30.17;24.08;;;;;;;13.38;100.00;99934.16;1043134;28;20333;-80
2022/05/24 00:58:41;;;;;;;27.90;25.02;;;;;;;13.43;100.00;99928.88;1034632;28;20810;-80
2022/05/24 00:59:25;;;;;;;26.73;24.05;;;;;;;13.44;100.00;99935.03;1033787;28;20294;-80
2022/05/24 01:00:07;;;;;;;31.83;25.58;;;;;;;13.33;100.00;99928.78;1036988;28;21751;-80
2022/05/24 01:00:39;;;;;;;34.10;25.17;;;;;;;13.32;100.00;99931.72;1036478;28;20308;-80
2022/05/24 01:01:32;;;;;;;26.83;24.15;;;;;;;13.43;100.00;99928.88;1041599;28;20877;-80
2022/05/24 01:02:04;;;;;;;28.13;24.95;;;;;;;13.36;100.00;99930.13;1043112;28;20287;-80
2022/05/24 01:02:41;;;;;;;26.88;24.20;;;;;;;13.45;100.00;99924.06;1046380;28;20339;-80
2022/05/24 01:03:13;;;;;;;27.58;24.70;;;;;;;13.49;100.00;99921.69;1043934;28;20307;-80
2022/05/24 01:03:45;;;;;;;28.38;24.42;;;;;;;13.47;100.00;99921.13;1046799;28;20341;-80
2022/05/24 01:04:19;;;;;;;28.75;25.27;;;;;;;13.41;100.00;99922.13;1041987;28;20304;-80
2022/05/24 01:04:51;;;;;;;30.00;24.52;;;;;;;13.45;100.00;99920.59;1045233;28;20299;-80
2022/05/24 01:05:26;;;;;;;27.10;24.73;;;;;;;13.50;100.00;99917.94;1045685;28;20322;-80
2022/05/24 01:05:58;;;;;;;28.50;25.58;;;;;;;13.54;100.00;99919.03;1046392;28;20287;-80
2022/05/24 01:06:30;;;;;;;30.30;25.10;;;;;;;13.56;100.00;99919.56;1046112;28;20287;-80
2022/05/24 01:07:02;;;;;;;28.55;25.50;;;;;;;13.47;100.00;99921.13;1047735;28;20306;-80
2022/05/24 01:07:36;;;;;;;27.98;25.10;;;;;;;13.46;100.00;99916.84;1044064;28;20321;-80
2022/05/24 01:08:07;;;;;;;27.00;24.35;;;;;;;13.33;100.00;99919.94;1043986;28;20306;-80
2022/05/24 01:08:40;;;;;;;28.10;25.10;;;;;;;13.41;100.00;99925.63;1044414;28;20303;-80
2022/05/24 01:09:16;;;;;;;27.60;24.92;;;;;;;13.35;100.00;99923.16;1044778;28;20708;-81
2022/05/24 01:09:55;;;;;;;29.48;26.45;;;;;;;13.39;100.00;99924.25;1041985;28;20291;-81
2022/05/24 01:10:36;;;;;;;28.52;25.67;;;;;;;13.39;100.00;99916.25;1043522;28;20358;-81
2022/05/24 01:11:09;;;;;;;28.40;24.60;;;;;;;13.41;100.00;99919.47;1039325;28;20307;-80
2022/05/24 01:11:44;;;;;;;27.10;24.23;;;;;;;13.45;100.00;99917.91;1035815;28;20296;-80
2022/05/24 01:12:26;;;;;;;26.30;23.80;;;;;;;13.42;100.00;99918.41;1036211;28;20292;-79
2022/05/24 01:13:06;;;;;;;27.35;24.55;;;;;;;13.43;100.00;99920.84;1037600;28;20294;-79
2022/05/24 01:13:41;;;;;;;27.58;24.75;;;;;;;13.34;100.00;99913.53;1047880;28;20306;-79
2022/05/24 01:14:15;;;;;;;26.60;23.65;;;;;;;13.37;100.00;99915.69;1040717;28;20330;-79
2022/05/24 01:14:47;;;;;;;26.20;23.60;;;;;;;13.28;100.00;99916.19;1039477;28;20300;-79
2022/05/24 01:15:20;;;;;;;30.58;24.55;;;;;;;13.36;100.00;99914.06;1036971;28;20383;-80
2022/05/24 01:15:51;;;;;;;28.23;25.45;;;;;;;13.37;100.00;99921.03;1036867;28;20289;-79
2022/05/24 01:16:23;;;;;;;27.85;24.83;;;;;;;13.35;100.00;99920.50;1029196;28;20309;-80
2022/05/24 01:16:55;;;;;;;28.13;25.05;;;;;;;13.35;100.00;99921.31;1035795;28;20304;-79
2022/05/24 01:17:27;;;;;;;27.60;24.95;;;;;;;13.27;100.00;99917.25;1029281;28;20313;-80
2022/05/24 01:17:59;;;;;;;27.67;24.98;;;;;;;13.32;100.00;99911.13;1028980;28;20937;-79
2022/05/24 01:18:31;;;;;;;28.13;25.20;;;;;;;13.37;100.00;99905.00;1028870;28;20306;-79
2022/05/24 01:19:05;;;;;;;29.83;24.08;;;;;;;13.49;100.00;99905.63;1028801;28;20302;-80
2022/05/24 01:19:43;;;;;;;26.50;23.95;;;;;;;13.39;100.00;99910.88;1036802;28;20305;-80
2022/05/24 01:20:14;;;;;;;28.25;25.38;;;;;;;13.37;100.00;99902.31;1033762;28;20632;-79
2022/05/24 01:20:52;;;;;;;28.38;25.48;;;;;;;13.45;100.00;99901.84;1037143;28;20292;-80
2022/05/24 01:21:23;;;;;;;29.27;26.45;;;;;;;13.39;100.00;99905.53;1034614;28;20292;-80
2022/05/24 01:21:58;;;;;;;28.83;25.98;;;;;;;13.37;100.00;99910.34;1033074;28;20337;-80
2022/05/24 01:23:00;;;;;;;28.92;26.17;;;;;;;13.28;100.00;99910.81;1035065;28;20383;-80
2022/05/24 01:23:38;;;;;;;;;;;;;;;13.26;100.00;99907.59;1040775;28;20045;-79
2022/05/24 01:24:32;;;;;;;30.70;23.40;;;;;;;13.35;100.00;99910.59;1045817;28;19921;-80
2022/05/24 01:25:45;;;;;;;26.30;23.33;;;;;;;13.40;100.00;99915.19;1048002;28;20813;-80
2022/05/24 01:26:56;;;;;;;27.17;24.30;;;;;;;13.41;100.00;99914.09;1043843;28;20357;-80
2022/05/24 01:27:27;;;;;;;28.88;24.33;;;;;;;13.39;100.00;99916.25;1029246;28;20346;-80
2022/05/24 01:28:00;;;;;;;27.52;24.38;;;;;;;13.39;100.00;99916.25;1031323;28;20764;-80
2022/05/24 01:28:44;;;;;;;27.35;24.52;;;;;;;13.46;100.00;99908.81;1027353;28;20325;-80
2022/05/24 01:29:17;;;;;;;27.73;24.90;;;;;;;13.41;100.00;99914.91;1032120;28;20388;-80
2022/05/24 01:29:49;;;;;;;28.50;25.58;;;;;;;13.39;100.00;99911.69;1032978;28;20309;-80
2022/05/24 01:30:21;;;;;;;33.47;26.05;;;;;;;13.46;100.00;99911.50;1041855;28;20661;-80
2022/05/24 01:30:54;;;;;;;30.33;25.73;;;;;;;13.36;100.00;99916.75;1039152;28;20318;-80
2022/05/24 01:36:09;;;;;;;28.65;25.83;;;;;;;13.36;100.00;99922.09;1036840;28;20305;-80
2022/05/24 01:36:32;;;;;;;29.23;25.88;;;;;;;13.41;100.00;99906.09;1043528;28;20647;-80
2022/05/24 01:37:07;;;;;;;30.75;24.92;;;;;;;13.44;100.00;99903.72;1041091;28;20366;-80
2022/05/24 01:37:39;;;;;;;29.50;26.52;;;;;;;13.39;100.00;99908.22;1035890;28;20344;-80
2022/05/24 01:38:15;;;;;;;28.80;25.77;;;;;;;13.43;100.00;99914.69;1042042;28;20303;-80
2022/05/24 01:38:50;;;;;;;28.23;25.40;;;;;;;13.37;100.00;99910.34;1040184;28;20299;-80
2022/05/24 01:39:21;;;;;;;29.98;26.83;;;;;;;13.36;100.00;99911.41;1035549;28;20296;-80
2022/05/24 01:39:55;;;;;;;32.75;27.85;;;;;;;13.41;100.00;99908.75;1037236;28;20296;-80
2022/05/24 01:40:27;;;;;;;31.58;26.95;;;;;;;13.43;100.00;99912.00;1039831;28;20296;-80
2022/05/24 01:40:59;;;;;;;30.52;27.38;;;;;;;13.34;100.00;99913.53;1040631;28;20355;-79
2022/05/24 01:41:35;;;;;;;31.10;27.83;;;;;;;13.34;100.00;99914.34;1036892;28;20288;-80
2022/05/24 01:42:07;;;;;;;31.08;27.90;;;;;;;13.40;100.00;99907.16;1039534;28;20304;-80
2022/05/24 01:42:42;;;;;;;36.70;29.00;;;;;;;13.41;100.00;99906.09;1041521;28;20375;-80
2022/05/24 01:43:16;;;;;;;31.60;28.33;;;;;;;13.41;100.00;99908.75;1040607;28;20307;-80
2022/05/24 01:43:50;;;;;;;32.78;29.30;;;;;;;13.42;100.00;99911.22;1036528;28;20301;-80
2022/05/24 01:44:27;;;;;;;32.33;28.70;;;;;;;13.42;100.00;99907.69;1035727;28;20301;-80
2022/05/24 01:45:05;;;;;;;33.70;29.98;;;;;;;13.40;100.00;99913.31;1030098;28;20285;-80
2022/05/24 01:45:41;;;;;;;33.15;29.83;;;;;;;13.41;100.00;99916.78;1031916;28;20302;-81
2022/05/24 01:46:14;;;;;;;33.28;29.75;;;;;;;13.40;100.00;99907.16;1038150;28;20328;-80
2022/05/24 01:46:46;;;;;;;34.35;30.83;;;;;;;13.39;100.00;99910.88;1041375;28;20300;-81
2022/05/24 01:47:18;;;;;;;34.00;30.55;;;;;;;13.40;100.00;99913.31;1036418;28;20312;-81
2022/05/24 01:47:55;;;;;;;37.78;29.92;;;;;;;13.28;100.00;99902.81;1031436;28;20324;-80
2022/05/24 01:48:32;;;;;;;32.22;28.92;;;;;;;13.40;100.00;99912.50;1034440;28;20301;-80
2022/05/24 01:49:25;;;;;;;34.83;31.23;;;;;;;13.45;100.00;99920.59;1041479;28;20299;-80
2022/05/24 01:50:00;;;;;;;35.80;31.45;;;;;;;13.38;100.00;99914.63;1039505;28;20404;-81
2022/05/24 01:50:33;;;;;;;36.20;32.22;;;;;;;13.44;100.00;99908.28;1039210;28;20300;-81
2022/05/24 01:51:06;;;;;;;37.63;32.22;;;;;;;13.43;100.00;99912.00;1039315;28;20386;-81
2022/05/24 01:51:46;;;;;;;34.25;30.67;;;;;;;13.33;100.00;99917.28;1039504;28;20300;-80
2022/05/24 01:52:22;;;;;;;34.05;30.55;;;;;;;13.42;100.00;99931.78;1040118;28;20300;-80
2022/05/24 01:53:01;;;;;;;36.47;32.25;;;;;;;13.38;100.00;99920.78;1039438;28;20543;-80
2022/05/24 01:53:37;;;;;;;35.17;31.55;;;;;;;13.39;100.00;99916.25;1043086;28;20292;-80
2022/05/24 01:54:31;;;;;;;36.05;32.35;;;;;;;13.41;100.00;99917.59;1044272;28;20291;-81
2022/05/24 01:55:10;;;;;;;38.25;32.22;;;;;;;13.30;100.00;99919.41;1043351;28;20284;-80
2022/05/24 01:55:51;;;;;;;41.72;34.35;;;;;;;13.37;100.00;99905.78;1043926;28;20291;-81
2022/05/24 01:56:29;;;;;;;35.28;31.70;;;;;;;13.45;100.00;99899.19;1048062;28;20376;-81
2022/05/24 01:57:05;;;;;;;37.38;32.05;;;;;;;13.43;100.00;99904.00;1047865;28;20294;-80
2022/05/24 01:57:41;;;;;;;36.58;32.63;;;;;;;13.39;100.00;99901.00;1041562;28;20295;-81
2022/05/24 01:58:14;;;;;;;35.63;31.13;;;;;;;13.40;100.00;99896.44;1041741;28;20292;-81
2022/05/24 01:58:49;;;;;;;37.25;32.67;;;;;;;13.38;100.00;99906.59;1039479;28;20304;-80
2022/05/24 01:59:24;;;;;;;40.60;32.95;;;;;;;13.36;100.00;99901.50;1037249;28;20379;-80
2022/05/24 01:59:56;;;;;;;38.75;33.65;;;;;;;13.39;100.00;99905.53;1039048;28;20300;-80
2022/05/24 02:00:29;;;;;;;37.42;33.33;;;;;;;13.41;100.00;99908.75;1037853;28;20707;-81
2022/05/24 02:01:05;;;;;;;38.03;34.00;;;;;;;13.41;100.00;99908.75;1040418;28;20359;-80
2022/05/24 02:01:50;;;;;;;34.65;31.17;;;;;;;13.40;100.00;99909.81;1039643;28;20292;-80
2022/05/24 02:02:22;;;;;;;36.85;32.88;;;;;;;13.44;100.00;99916.28;1039491;28;20721;-80
2022/05/24 02:02:54;;;;;;;38.40;34.38;;;;;;;13.33;100.00;99915.41;1033848;28;20089;-80
2022/05/24 02:03:27;;;;;;;35.15;31.50;;;;;;;13.19;100.00;99916.91;1029062;28;20309;-80
2022/05/24 02:04:01;;;;;;;36.60;32.63;;;;;;;13.26;100.00;99907.59;1032165;28;21542;-81
2022/05/24 02:04:34;;;;;;;36.97;33.22;;;;;;;13.29;100.00;99907.09;1037531;28;20679;-81
2022/05/24 02:05:06;;;;;;;45.75;34.88;;;;;;;13.32;100.00;99915.66;1040420;28;20395;-81
2022/05/24 02:05:40;;;;;;;41.47;33.53;;;;;;;13.28;100.00;99910.81;1035056;28;20348;-79
2022/05/24 02:06:26;;;;;;;42.72;35.65;;;;;;;13.33;100.00;99903.91;1035589;28;20292;-80
2022/05/24 02:06:59;;;;;;;38.38;34.17;;;;;;;13.29;100.00;99908.97;1040454;28;20303;-80
2022/05/24 02:07:32;;;;;;;36.55;32.78;;;;;;;13.27;100.00;99906.53;1041405;28;20793;-80
2022/05/24 02:08:07;;;;;;;36.40;32.67;;;;;;;13.29;100.00;99904.41;1043621;28;20307;-80
2022/05/24 02:08:38;;;;;;;37.13;33.30;;;;;;;13.30;100.00;99903.34;1035545;28;20775;-80
2022/05/24 02:09:14;;;;;;;37.80;34.05;;;;;;;13.26;100.00;99907.59;1035611;28;20296;-80
2022/05/24 02:09:49;;;;;;;37.40;33.50;;;;;;;13.28;100.00;99900.13;1036825;28;20296;-81
2022/05/24 02:10:20;;;;;;;39.40;35.58;;;;;;;13.25;100.00;99900.66;1038551;28;20293;-80
2022/05/24 02:10:56;;;;;;;40.22;35.72;;;;;;;13.17;100.00;99909.16;1039388;28;20303;-80
2022/05/24 02:11:29;;;;;;;37.13;33.22;;;;;;;13.21;100.00;99915.59;1033070;28;20388;-80
2022/05/24 02:12:03;;;;;;;41.08;35.00;;;;;;;13.21;100.00;99915.59;1036453;28;20038;-80
2022/05/24 02:12:44;;;;;;;38.40;34.00;;;;;;;13.19;100.00;99920.41;1032104;28;20664;-80
2022/05/24 02:13:26;;;;;;;36.65;32.55;;;;;;;13.13;100.00;99916.00;1039870;28;20810;-80
2022/05/24 02:14:09;;;;;;;40.65;34.08;;;;;;;13.12;100.00;99917.06;1039301;28;20302;-80
2022/05/24 02:14:44;;;;;;;40.90;36.47;;;;;;;13.09;100.00;99906.91;1039697;28;20416;-80
2022/05/24 02:15:21;;;;;;;38.58;34.15;;;;;;;13.10;100.00;99903.16;1043244;28;20307;-79
2022/05/24 02:15:56;;;;;;;41.25;34.90;;;;;;;13.10;100.00;99903.16;1041405;28;20724;-80
2022/05/24 02:16:31;;;;;;;38.67;33.63;;;;;;;13.08;100.00;99894.59;1037054;28;20900;-80
2022/05/24 02:17:08;;;;;;;38.22;34.25;;;;;;;12.88;100.00;99903.28;1039996;28;20292;-79
2022/05/24 02:17:44;;;;;;;37.85;33.00;;;;;;;12.97;100.00;99903.59;1045421;28;20793;-80
2022/05/24 02:18:18;;;;;;;40.83;34.83;;;;;;;13.03;100.00;99905.25;1047788;28;20294;-81
2022/05/24 02:18:51;;;;;;;42.20;36.50;;;;;;;13.01;100.00;99904.69;1041430;28;20299;-80
2022/05/24 02:19:24;;;;;;;42.00;34.47;;;;;;;12.89;100.00;99901.41;1035171;28;20299;-80
2022/05/24 02:19:58;;;;;;;45.55;36.78;;;;;;;12.81;100.00;99899.97;1031194;28;20345;-80
2022/05/24 02:20:33;;;;;;;46.60;36.65;;;;;;;12.88;100.00;99905.94;1032286;28;20316;-80
2022/05/24 02:21:06;;;;;;;42.95;36.53;;;;;;;12.95;100.00;99905.72;1034735;28;20305;-80
2022/05/24 02:21:38;;;;;;;42.60;38.10;;;;;;;13.01;100.00;99904.69;1036709;28;20292;-80
2022/05/24 02:22:14;;;;;;;41.88;37.53;;;;;;;12.98;100.00;99914.03;1035207;28;20308;-80
2022/05/24 02:22:48;;;;;;;48.83;37.72;;;;;;;12.94;100.00;99917.47;1036232;28;20778;-80
2022/05/24 02:23:19;;;;;;;45.22;39.80;;;;;;;12.90;100.00;99917.19;1035020;28;20644;-81
2022/05/24 02:23:51;;;;;;;43.10;38.47;;;;;;;12.93;100.00;99919.34;1034578;28;20651;-80
2022/05/24 02:24:25;;;;;;;42.78;38.17;;;;;;;12.94;100.00;99922.81;1039143;28;20300;-79
2022/05/24 02:25:15;;;;;;;43.70;38.97;;;;;;;13.00;100.00;99921.81;1041475;28;20625;-80
2022/05/24 02:25:55;;;;;;;45.72;38.30;;;;;;;13.01;100.00;99915.41;1042750;28;20728;-80
2022/05/24 02:26:28;;;;;;;41.85;36.17;;;;;;;12.79;100.00;99920.00;1037594;28;20308;-80
2022/05/24 02:27:00;;;;;;;49.83;38.85;;;;;;;12.91;100.00;99915.31;1043295;28;20049;-80
2022/05/24 02:27:38;;;;;;;48.45;40.03;;;;;;;12.90;100.00;99913.72;1038481;28;20299;-79
2022/05/24 02:28:11;;;;;;;43.13;38.72;;;;;;;12.94;100.00;99914.81;1035018;28;20332;-80
2022/05/24 02:28:43;;;;;;;48.88;39.60;;;;;;;12.92;100.00;99909.72;1031256;28;20293;-80
2022/05/24 02:29:16;;;;;;;43.28;37.58;;;;;;;12.92;100.00;99914.25;1032603;28;20297;-80
2022/05/24 02:29:48;;;;;;;47.03;40.13;;;;;;;12.92;100.00;99911.59;1031732;28;20297;-80
2022/05/24 02:30:23;;;;;;;46.45;38.60;;;;;;;12.93;100.00;99918.53;1032018;28;20312;-79
2022/05/24 02:31:08;;;;;;;47.33;39.88;;;;;;;12.83;100.00;99913.88;1036664;28;20296;-80
2022/05/24 02:31:40;;;;;;;43.85;37.97;;;;;;;12.83;100.00;99923.78;1037690;28;20308;-80
2022/05/24 02:32:12;;;;;;;54.92;39.03;;;;;;;12.77;100.00;99920.25;1038302;28;20442;-80
2022/05/24 02:32:44;;;;;;;45.25;38.80;;;;;;;12.81;100.00;99909.88;1039028;28;20316;-80
2022/05/24 02:33:16;;;;;;;46.78;39.75;;;;;;;12.86;100.00;99908.03;1039567;28;20381;-79
2022/05/24 02:33:47;;;;;;;49.83;38.90;;;;;;;12.77;100.00;99914.09;1043657;28;20295;-80
2022/05/24 02:34:19;;;;;;;51.28;42.75;;;;;;;12.83;100.00;99908.53;1043664;28;20295;-79
2022/05/24 02:34:51;;;;;;;45.83;39.22;;;;;;;12.82;100.00;99908.81;1038940;28;20312;-80
2022/05/24 02:35:23;;;;;;;44.60;39.20;;;;;;;12.79;100.00;99917.31;1039474;28;20318;-79
2022/05/24 02:35:55;;;;;;;47.90;40.08;;;;;;;12.81;100.00;99917.88;1036853;28;20304;-80
2022/05/24 02:36:26;;;;;;;48.70;40.08;;;;;;;12.80;100.00;99910.91;1038460;28;20304;-80
2022/05/24 02:37:04;;;;;;;47.05;40.20;;;;;;;12.87;100.00;99914.19;1034987;28;20773;-80
2022/05/24 02:37:37;;;;;;;45.88;40.08;;;;;;;12.81;100.00;99920.56;1036894;28;20678;-80
2022/05/24 02:38:08;;;;;;;48.78;40.85;;;;;;;12.83;100.00;99916.56;1035528;28;20297;-80
2022/05/24 02:38:40;;;;;;;49.42;41.67;;;;;;;12.83;100.00;99913.88;1031361;28;20305;-80
2022/05/24 02:39:11;;;;;;;49.90;42.08;;;;;;;12.84;100.00;99922.72;1035804;28;20304;-80
2022/05/24 02:41:31;;;;;;;45.63;37.40;;;;;;;12.85;100.00;99916.31;1043276;28;20685;-80
2022/05/24 02:42:03;;;;;;;52.70;39.15;;;;;;;12.88;100.00;99921.97;1037934;28;20311;-80
2022/05/24 02:42:35;;;;;;;45.22;38.97;;;;;;;12.81;100.00;99920.56;1039347;28;20307;-80
2022/05/24 02:43:07;;;;;;;45.95;40.78;;;;;;;12.85;100.00;99927.00;1042427;28;20673;-80
2022/05/24 02:43:39;;;;;;;47.22;40.00;;;;;;;12.78;100.00;99927.22;1040349;28;20315;-79
2022/05/24 02:44:13;;;;;;;50.88;41.47;;;;;;;12.76;100.00;99928.53;1047557;28;20299;-80
2022/05/24 02:44:45;;;;;;;47.83;40.97;;;;;;;12.82;100.00;99930.19;1039353;28;20303;-80
2022/05/24 02:45:17;;;;;;;49.65;40.78;;;;;;;12.88;100.00;99923.84;1035113;28;20722;-79
2022/05/24 02:45:49;;;;;;;46.22;41.05;;;;;;;12.88;100.00;99932.66;1035438;28;20296;-79
2022/05/24 02:46:21;;;;;;;51.15;41.28;;;;;;;12.91;100.00;99920.66;1035811;28;20324;-80
2022/05/24 02:46:53;;;;;;;47.25;41.53;;;;;;;12.88;100.00;99921.19;1039209;28;20349;-80